sensor_id;sensor_type;location;lat;lon;timestamp;temperature;humidity
32506;DHT22;18955;51.224;8.482;2023-10-13T00:01:59;14.30;91.30
32506;DHT22;18955;51.224;8.482;2023-10-13T00:04:25;14.30;91.30
32506;DHT22;18955;51.224;8.482;2023-10-13T00:06:52;14.30;91.10
32506;DHT22;18955;51.224;8.482;2023-10-13T00:09:26;14.40;91.60
32506;DHT22;18955;51.224;8.482;2023-10-13T00:11:59;14.30;91.30
32506;DHT22;18955;51.224;8.482;2023-10-13T00:14:25;14.30;91.30
32506;DHT22;18955;51.224;8.482;2023-10-13T00:17:03;14.30;91.30
32506;DHT22;18955;51.224;8.482;2023-10-13T00:19:31;14.30;91.50
32506;DHT22;18955;51.224;8.482;2023-10-13T00:22:08;14.30;91.40
32506;DHT22;18955;51.224;8.482;2023-10-13T00:24:39;14.30;91.50
32506;DHT22;18955;51.224;8.482;2023-10-13T00:27:12;14.40;91.70
32506;DHT22;18955;51.224;8.482;2023-10-13T00:29:58;14.40;91.60
32506;DHT22;18955;51.224;8.482;2023-10-13T00:32:44;14.40;91.40
32506;DHT22;18955;51.224;8.482;2023-10-13T00:35:13;14.40;91.50
32506;DHT22;18955;51.224;8.482;2023-10-13T00:37:53;14.40;91.50
32506;DHT22;18955;51.224;8.482;2023-10-13T00:40:21;14.40;92.20
32506;DHT22;18955;51.224;8.482;2023-10-13T00:43:13;14.40;91.30
32506;DHT22;18955;51.224;8.482;2023-10-13T00:48:26;14.40;92.00
32506;DHT22;18955;51.224;8.482;2023-10-13T00:51:03;14.40;91.70
32506;DHT22;18955;51.224;8.482;2023-10-13T00:53:36;14.40;91.90
32506;DHT22;18955;51.224;8.482;2023-10-13T00:56:06;14.40;91.80
32506;DHT22;18955;51.224;8.482;2023-10-13T00:58:45;14.40;91.80
32506;DHT22;18955;51.224;8.482;2023-10-13T01:01:19;14.40;91.60
32506;DHT22;18955;51.224;8.482;2023-10-13T01:03:52;14.40;91.60
32506;DHT22;18955;51.224;8.482;2023-10-13T01:06:26;14.40;91.70
32506;DHT22;18955;51.224;8.482;2023-10-13T01:09:11;14.40;91.60
32506;DHT22;18955;51.224;8.482;2023-10-13T01:11:50;14.40;91.70
32506;DHT22;18955;51.224;8.482;2023-10-13T01:14:21;14.40;91.60
32506;DHT22;18955;51.224;8.482;2023-10-13T01:16:49;14.40;91.60
32506;DHT22;18955;51.224;8.482;2023-10-13T01:19:19;14.40;91.50
32506;DHT22;18955;51.224;8.482;2023-10-13T01:21:51;14.40;91.60
32506;DHT22;18955;51.224;8.482;2023-10-13T01:24:37;14.40;91.70
32506;DHT22;18955;51.224;8.482;2023-10-13T01:27:05;14.40;91.50
32506;DHT22;18955;51.224;8.482;2023-10-13T01:29:41;14.40;91.50
32506;DHT22;18955;51.224;8.482;2023-10-13T01:32:07;14.40;91.60
32506;DHT22;18955;51.224;8.482;2023-10-13T01:34:38;14.40;91.40
32506;DHT22;18955;51.224;8.482;2023-10-13T01:37:04;14.40;91.50
32506;DHT22;18955;51.224;8.482;2023-10-13T01:39:32;14.40;91.50
32506;DHT22;18955;51.224;8.482;2023-10-13T01:41:58;14.40;91.50
32506;DHT22;18955;51.224;8.482;2023-10-13T01:44:27;14.40;91.40
32506;DHT22;18955;51.224;8.482;2023-10-13T01:47:02;14.40;91.40
32506;DHT22;18955;51.224;8.482;2023-10-13T01:49:33;14.40;91.40
32506;DHT22;18955;51.224;8.482;2023-10-13T01:52:09;14.40;91.30
32506;DHT22;18955;51.224;8.482;2023-10-13T01:54:38;14.40;91.60
32506;DHT22;18955;51.224;8.482;2023-10-13T01:57:07;14.40;91.60
32506;DHT22;18955;51.224;8.482;2023-10-13T01:59:34;14.40;91.90
32506;DHT22;18955;51.224;8.482;2023-10-13T02:02:12;14.40;91.50
32506;DHT22;18955;51.224;8.482;2023-10-13T02:04:42;14.40;91.60
32506;DHT22;18955;51.224;8.482;2023-10-13T02:07:16;14.40;91.50
32506;DHT22;18955;51.224;8.482;2023-10-13T02:09:42;14.40;91.60
32506;DHT22;18955;51.224;8.482;2023-10-13T02:12:09;14.40;91.60
32506;DHT22;18955;51.224;8.482;2023-10-13T02:14:35;14.40;91.60
32506;DHT22;18955;51.224;8.482;2023-10-13T02:17:04;14.40;91.50
32506;DHT22;18955;51.224;8.482;2023-10-13T02:19:40;14.40;91.50
32506;DHT22;18955;51.224;8.482;2023-10-13T02:22:11;14.40;91.50
32506;DHT22;18955;51.224;8.482;2023-10-13T02:24:38;14.40;91.50
32506;DHT22;18955;51.224;8.482;2023-10-13T02:27:07;14.40;91.40
32506;DHT22;18955;51.224;8.482;2023-10-13T02:29:42;14.40;91.40
32506;DHT22;18955;51.224;8.482;2023-10-13T02:32:12;14.50;91.30
32506;DHT22;18955;51.224;8.482;2023-10-13T02:34:47;14.40;91.70
32506;DHT22;18955;51.224;8.482;2023-10-13T02:37:14;14.40;91.60
32506;DHT22;18955;51.224;8.482;2023-10-13T02:39:40;14.40;91.50
32506;DHT22;18955;51.224;8.482;2023-10-13T02:42:10;14.50;91.50
32506;DHT22;18955;51.224;8.482;2023-10-13T02:44:49;14.40;91.40
32506;DHT22;18955;51.224;8.482;2023-10-13T02:47:17;14.40;91.80
32506;DHT22;18955;51.224;8.482;2023-10-13T02:49:45;14.40;91.60
32506;DHT22;18955;51.224;8.482;2023-10-13T02:52:13;14.40;91.50
32506;DHT22;18955;51.224;8.482;2023-10-13T02:54:41;14.40;91.80
32506;DHT22;18955;51.224;8.482;2023-10-13T02:57:19;14.50;91.50
32506;DHT22;18955;51.224;8.482;2023-10-13T02:59:45;14.40;91.40
32506;DHT22;18955;51.224;8.482;2023-10-13T03:02:22;14.40;91.40
32506;DHT22;18955;51.224;8.482;2023-10-13T03:04:50;14.40;91.30
32506;DHT22;18955;51.224;8.482;2023-10-13T03:07:17;14.40;91.60
32506;DHT22;18955;51.224;8.482;2023-10-13T03:09:52;14.40;91.40
32506;DHT22;18955;51.224;8.482;2023-10-13T03:12:19;14.50;91.40
32506;DHT22;18955;51.224;8.482;2023-10-13T03:14:46;14.40;91.50
32506;DHT22;18955;51.224;8.482;2023-10-13T03:17:14;14.40;91.40
32506;DHT22;18955;51.224;8.482;2023-10-13T03:19:45;14.40;91.40
32506;DHT22;18955;51.224;8.482;2023-10-13T03:22:16;14.50;91.70
32506;DHT22;18955;51.224;8.482;2023-10-13T03:24:44;14.50;91.80
32506;DHT22;18955;51.224;8.482;2023-10-13T03:27:16;14.40;91.50
32506;DHT22;18955;51.224;8.482;2023-10-13T03:29:44;14.50;91.40
32506;DHT22;18955;51.224;8.482;2023-10-13T03:32:11;14.40;91.40
32506;DHT22;18955;51.224;8.482;2023-10-13T03:34:45;14.40;91.40
32506;DHT22;18955;51.224;8.482;2023-10-13T03:37:26;14.40;91.40
32506;DHT22;18955;51.224;8.482;2023-10-13T03:40:03;14.40;91.50
32506;DHT22;18955;51.224;8.482;2023-10-13T03:42:32;14.40;91.40
32506;DHT22;18955;51.224;8.482;2023-10-13T03:44:59;14.40;91.30
32506;DHT22;18955;51.224;8.482;2023-10-13T03:47:25;14.50;91.40
32506;DHT22;18955;51.224;8.482;2023-10-13T03:49:58;14.50;91.30
32506;DHT22;18955;51.224;8.482;2023-10-13T03:52:42;14.50;91.30
32506;DHT22;18955;51.224;8.482;2023-10-13T03:55:08;14.40;91.40
32506;DHT22;18955;51.224;8.482;2023-10-13T03:57:43;14.50;91.40
32506;DHT22;18955;51.224;8.482;2023-10-13T04:00:12;14.40;91.30
32506;DHT22;18955;51.224;8.482;2023-10-13T04:02:47;14.50;91.40
32506;DHT22;18955;51.224;8.482;2023-10-13T04:05:20;14.40;91.40
32506;DHT22;18955;51.224;8.482;2023-10-13T04:08:08;14.50;91.50
32506;DHT22;18955;51.224;8.482;2023-10-13T04:10:49;14.40;91.50
32506;DHT22;18955;51.224;8.482;2023-10-13T04:13:19;14.50;91.50
32506;DHT22;18955;51.224;8.482;2023-10-13T04:16:04;14.50;91.50
32506;DHT22;18955;51.224;8.482;2023-10-13T04:18:52;14.50;91.40
32506;DHT22;18955;51.224;8.482;2023-10-13T04:21:21;14.50;91.50
32506;DHT22;18955;51.224;8.482;2023-10-13T04:24:09;14.50;91.50
32506;DHT22;18955;51.224;8.482;2023-10-13T04:26:49;14.50;91.50
32506;DHT22;18955;51.224;8.482;2023-10-13T04:29:34;14.40;91.70
32506;DHT22;18955;51.224;8.482;2023-10-13T04:32:19;14.50;91.70
32506;DHT22;18955;51.224;8.482;2023-10-13T04:34:56;14.50;91.50
32506;DHT22;18955;51.224;8.482;2023-10-13T04:37:35;14.50;91.50
32506;DHT22;18955;51.224;8.482;2023-10-13T04:40:18;14.50;91.50
32506;DHT22;18955;51.224;8.482;2023-10-13T04:42:47;14.50;91.40
32506;DHT22;18955;51.224;8.482;2023-10-13T04:45:22;14.50;91.40
32506;DHT22;18955;51.224;8.482;2023-10-13T04:47:59;14.50;91.40
32506;DHT22;18955;51.224;8.482;2023-10-13T04:50:48;14.50;91.50
32506;DHT22;18955;51.224;8.482;2023-10-13T04:53:17;14.50;91.50
32506;DHT22;18955;51.224;8.482;2023-10-13T04:55:59;14.50;91.40
32506;DHT22;18955;51.224;8.482;2023-10-13T04:58:30;14.50;91.50
32506;DHT22;18955;51.224;8.482;2023-10-13T05:01:05;14.50;91.70
32506;DHT22;18955;51.224;8.482;2023-10-13T05:03:50;14.50;91.60
32506;DHT22;18955;51.224;8.482;2023-10-13T05:06:32;14.50;91.60
32506;DHT22;18955;51.224;8.482;2023-10-13T05:09:10;14.50;91.60
32506;DHT22;18955;51.224;8.482;2023-10-13T05:11:55;14.50;91.60
32506;DHT22;18955;51.224;8.482;2023-10-13T05:14:39;14.50;91.50
32506;DHT22;18955;51.224;8.482;2023-10-13T05:17:24;14.50;91.50
32506;DHT22;18955;51.224;8.482;2023-10-13T05:20:09;14.50;91.60
32506;DHT22;18955;51.224;8.482;2023-10-13T05:23:11;14.50;91.60
32506;DHT22;18955;51.224;8.482;2023-10-13T05:25:59;14.60;91.70
32506;DHT22;18955;51.224;8.482;2023-10-13T05:28:44;14.60;91.70
32506;DHT22;18955;51.224;8.482;2023-10-13T05:31:29;14.60;91.60
32506;DHT22;18955;51.224;8.482;2023-10-13T05:34:14;14.60;91.60
32506;DHT22;18955;51.224;8.482;2023-10-13T05:36:59;14.60;91.70
32506;DHT22;18955;51.224;8.482;2023-10-13T05:39:44;14.60;91.70
32506;DHT22;18955;51.224;8.482;2023-10-13T05:42:29;14.60;91.80
32506;DHT22;18955;51.224;8.482;2023-10-13T05:45:14;14.60;91.60
32506;DHT22;18955;51.224;8.482;2023-10-13T05:47:43;14.60;91.70
32506;DHT22;18955;51.224;8.482;2023-10-13T05:50:10;14.60;91.80
32506;DHT22;18955;51.224;8.482;2023-10-13T05:52:40;14.60;91.80
32506;DHT22;18955;51.224;8.482;2023-10-13T05:55:28;14.60;91.80
32506;DHT22;18955;51.224;8.482;2023-10-13T05:58:14;14.60;91.70
32506;DHT22;18955;51.224;8.482;2023-10-13T06:00:59;14.60;91.80
32506;DHT22;18955;51.224;8.482;2023-10-13T06:03:44;14.60;91.80
32506;DHT22;18955;51.224;8.482;2023-10-13T06:06:29;14.60;91.80
32506;DHT22;18955;51.224;8.482;2023-10-13T06:09:14;14.60;91.90
32506;DHT22;18955;51.224;8.482;2023-10-13T06:11:59;14.60;92.00
32506;DHT22;18955;51.224;8.482;2023-10-13T06:14:47;14.60;91.80
32506;DHT22;18955;51.224;8.482;2023-10-13T06:17:32;14.70;92.20
32506;DHT22;18955;51.224;8.482;2023-10-13T06:20:17;14.70;92.00
32506;DHT22;18955;51.224;8.482;2023-10-13T06:23:02;14.60;91.90
32506;DHT22;18955;51.224;8.482;2023-10-13T06:25:51;14.70;91.90
32506;DHT22;18955;51.224;8.482;2023-10-13T06:28:36;14.60;91.90
32506;DHT22;18955;51.224;8.482;2023-10-13T06:31:10;14.70;91.90
32506;DHT22;18955;51.224;8.482;2023-10-13T06:33:49;14.60;91.90
32506;DHT22;18955;51.224;8.482;2023-10-13T06:36:15;14.70;91.80
32506;DHT22;18955;51.224;8.482;2023-10-13T06:38:43;14.70;91.80
32506;DHT22;18955;51.224;8.482;2023-10-13T06:41:09;14.70;92.10
32506;DHT22;18955;51.224;8.482;2023-10-13T06:43:45;14.70;92.10
32506;DHT22;18955;51.224;8.482;2023-10-13T06:46:12;14.70;91.90
32506;DHT22;18955;51.224;8.482;2023-10-13T06:48:49;14.70;91.90
32506;DHT22;18955;51.224;8.482;2023-10-13T06:51:19;14.70;91.70
32506;DHT22;18955;51.224;8.482;2023-10-13T06:53:49;14.70;91.90
32506;DHT22;18955;51.224;8.482;2023-10-13T06:56:17;14.70;91.90
32506;DHT22;18955;51.224;8.482;2023-10-13T06:58:56;14.70;91.90
32506;DHT22;18955;51.224;8.482;2023-10-13T07:01:28;14.70;91.80
32506;DHT22;18955;51.224;8.482;2023-10-13T07:03:54;14.70;91.80
32506;DHT22;18955;51.224;8.482;2023-10-13T07:06:27;14.70;92.10
32506;DHT22;18955;51.224;8.482;2023-10-13T07:08:53;14.70;92.20
32506;DHT22;18955;51.224;8.482;2023-10-13T07:11:26;14.70;92.20
32506;DHT22;18955;51.224;8.482;2023-10-13T07:14:04;14.70;92.20
32506;DHT22;18955;51.224;8.482;2023-10-13T07:16:56;14.70;92.20
32506;DHT22;18955;51.224;8.482;2023-10-13T07:19:25;14.80;92.00
32506;DHT22;18955;51.224;8.482;2023-10-13T07:21:57;14.80;92.20
32506;DHT22;18955;51.224;8.482;2023-10-13T07:24:43;14.80;92.30
32506;DHT22;18955;51.224;8.482;2023-10-13T07:27:10;14.80;92.10
32506;DHT22;18955;51.224;8.482;2023-10-13T07:29:36;14.80;92.30
32506;DHT22;18955;51.224;8.482;2023-10-13T07:32:03;14.80;92.20
32506;DHT22;18955;51.224;8.482;2023-10-13T07:34:29;14.80;92.40
32506;DHT22;18955;51.224;8.482;2023-10-13T07:36:59;14.80;92.50
32506;DHT22;18955;51.224;8.482;2023-10-13T07:39:29;14.80;92.40
32506;DHT22;18955;51.224;8.482;2023-10-13T07:42:00;14.80;92.50
32506;DHT22;18955;51.224;8.482;2023-10-13T07:44:49;14.80;92.60
32506;DHT22;18955;51.224;8.482;2023-10-13T07:47:16;14.80;92.40
32506;DHT22;18955;51.224;8.482;2023-10-13T07:49:44;14.80;92.50
32506;DHT22;18955;51.224;8.482;2023-10-13T07:52:11;14.80;92.50
32506;DHT22;18955;51.224;8.482;2023-10-13T07:54:48;14.80;92.30
32506;DHT22;18955;51.224;8.482;2023-10-13T07:57:15;14.90;92.50
32506;DHT22;18955;51.224;8.482;2023-10-13T07:59:43;14.90;92.50
32506;DHT22;18955;51.224;8.482;2023-10-13T08:02:18;14.90;92.40
32506;DHT22;18955;51.224;8.482;2023-10-13T08:05:09;14.90;92.30
32506;DHT22;18955;51.224;8.482;2023-10-13T08:07:35;14.90;92.60
32506;DHT22;18955;51.224;8.482;2023-10-13T08:10:06;14.90;92.20
32506;DHT22;18955;51.224;8.482;2023-10-13T08:12:36;14.90;92.30
32506;DHT22;18955;51.224;8.482;2023-10-13T08:15:04;14.90;92.20
32506;DHT22;18955;51.224;8.482;2023-10-13T08:17:47;14.90;92.20
32506;DHT22;18955;51.224;8.482;2023-10-13T08:20:18;14.90;92.10
32506;DHT22;18955;51.224;8.482;2023-10-13T08:22:46;14.90;92.20
32506;DHT22;18955;51.224;8.482;2023-10-13T08:25:13;14.90;92.10
32506;DHT22;18955;51.224;8.482;2023-10-13T08:28:11;14.90;92.10
32506;DHT22;18955;51.224;8.482;2023-10-13T08:31:05;14.90;92.10
32506;DHT22;18955;51.224;8.482;2023-10-13T08:33:54;14.90;92.30
32506;DHT22;18955;51.224;8.482;2023-10-13T08:36:31;15.00;92.20
32506;DHT22;18955;51.224;8.482;2023-10-13T08:38:58;15.00;92.20
32506;DHT22;18955;51.224;8.482;2023-10-13T08:41:45;15.00;92.10
32506;DHT22;18955;51.224;8.482;2023-10-13T08:44:34;15.00;92.20
32506;DHT22;18955;51.224;8.482;2023-10-13T08:47:01;15.00;92.30
32506;DHT22;18955;51.224;8.482;2023-10-13T08:49:32;15.00;92.30
32506;DHT22;18955;51.224;8.482;2023-10-13T08:52:07;15.00;92.20
32506;DHT22;18955;51.224;8.482;2023-10-13T08:54:56;15.10;92.50
32506;DHT22;18955;51.224;8.482;2023-10-13T08:57:49;15.10;92.30
32506;DHT22;18955;51.224;8.482;2023-10-13T09:00:19;15.10;92.30
32506;DHT22;18955;51.224;8.482;2023-10-13T09:03:06;15.10;92.30
32506;DHT22;18955;51.224;8.482;2023-10-13T09:05:55;15.10;92.30
32506;DHT22;18955;51.224;8.482;2023-10-13T09:08:28;15.10;92.40
32506;DHT22;18955;51.224;8.482;2023-10-13T09:11:03;15.10;92.10
32506;DHT22;18955;51.224;8.482;2023-10-13T09:13:37;15.10;92.10
32506;DHT22;18955;51.224;8.482;2023-10-13T09:16:14;15.10;92.20
32506;DHT22;18955;51.224;8.482;2023-10-13T09:19:09;15.20;92.30
32506;DHT22;18955;51.224;8.482;2023-10-13T09:21:38;15.20;92.20
32506;DHT22;18955;51.224;8.482;2023-10-13T09:24:12;15.20;92.30
32506;DHT22;18955;51.224;8.482;2023-10-13T09:26:48;15.20;92.20
32506;DHT22;18955;51.224;8.482;2023-10-13T09:29:19;15.20;92.30
32506;DHT22;18955;51.224;8.482;2023-10-13T09:31:46;15.20;92.40
32506;DHT22;18955;51.224;8.482;2023-10-13T09:34:21;15.20;92.20
32506;DHT22;18955;51.224;8.482;2023-10-13T09:36:50;15.20;92.30
32506;DHT22;18955;51.224;8.482;2023-10-13T09:39:25;15.20;92.20
32506;DHT22;18955;51.224;8.482;2023-10-13T09:42:12;15.30;92.20
32506;DHT22;18955;51.224;8.482;2023-10-13T09:44:38;15.30;92.20
32506;DHT22;18955;51.224;8.482;2023-10-13T09:47:10;15.30;92.20
32506;DHT22;18955;51.224;8.482;2023-10-13T09:49:46;15.30;92.20
32506;DHT22;18955;51.224;8.482;2023-10-13T09:52:18;15.30;92.20
32506;DHT22;18955;51.224;8.482;2023-10-13T09:55:19;15.30;92.20
32506;DHT22;18955;51.224;8.482;2023-10-13T09:57:53;15.30;92.10
32506;DHT22;18955;51.224;8.482;2023-10-13T10:00:26;15.40;92.10
32506;DHT22;18955;51.224;8.482;2023-10-13T10:03:14;15.40;92.10
32506;DHT22;18955;51.224;8.482;2023-10-13T10:06:00;15.40;92.10
32506;DHT22;18955;51.224;8.482;2023-10-13T10:08:31;15.40;92.10
32506;DHT22;18955;51.224;8.482;2023-10-13T10:14:10;15.40;92.10
32506;DHT22;18955;51.224;8.482;2023-10-13T10:19:26;15.40;92.10
32506;DHT22;18955;51.224;8.482;2023-10-13T10:22:03;15.50;92.00
32506;DHT22;18955;51.224;8.482;2023-10-13T10:24:56;15.50;91.90
32506;DHT22;18955;51.224;8.482;2023-10-13T10:27:24;15.50;92.00
32506;DHT22;18955;51.224;8.482;2023-10-13T10:29:54;15.60;92.00
32506;DHT22;18955;51.224;8.482;2023-10-13T10:32:21;15.60;92.10
32506;DHT22;18955;51.224;8.482;2023-10-13T10:34:47;15.60;92.10
32506;DHT22;18955;51.224;8.482;2023-10-13T10:37:14;15.60;92.10
32506;DHT22;18955;51.224;8.482;2023-10-13T10:39:42;15.60;92.10
32506;DHT22;18955;51.224;8.482;2023-10-13T10:42:12;15.60;92.10
32506;DHT22;18955;51.224;8.482;2023-10-13T10:44:42;15.60;92.10
32506;DHT22;18955;51.224;8.482;2023-10-13T10:47:14;15.60;92.00
32506;DHT22;18955;51.224;8.482;2023-10-13T10:49:48;15.60;91.90
32506;DHT22;18955;51.224;8.482;2023-10-13T10:52:17;15.60;91.90
32506;DHT22;18955;51.224;8.482;2023-10-13T10:54:57;15.70;91.90
32506;DHT22;18955;51.224;8.482;2023-10-13T10:57:23;15.70;91.90
32506;DHT22;18955;51.224;8.482;2023-10-13T10:59:54;15.70;92.00
32506;DHT22;18955;51.224;8.482;2023-10-13T11:02:41;15.70;91.90
32506;DHT22;18955;51.224;8.482;2023-10-13T11:05:07;15.80;91.90
32506;DHT22;18955;51.224;8.482;2023-10-13T11:07:36;15.70;91.90
32506;DHT22;18955;51.224;8.482;2023-10-13T11:10:10;15.70;91.90
32506;DHT22;18955;51.224;8.482;2023-10-13T11:15:22;15.80;91.90
32506;DHT22;18955;51.224;8.482;2023-10-13T11:17:49;15.80;91.90
32506;DHT22;18955;51.224;8.482;2023-10-13T11:20:21;15.80;91.80
32506;DHT22;18955;51.224;8.482;2023-10-13T11:22:59;15.80;91.80
32506;DHT22;18955;51.224;8.482;2023-10-13T11:25:31;15.80;91.90
32506;DHT22;18955;51.224;8.482;2023-10-13T11:28:13;15.90;91.80
32506;DHT22;18955;51.224;8.482;2023-10-13T11:30:47;15.90;91.90
32506;DHT22;18955;51.224;8.482;2023-10-13T11:33:17;15.90;91.80
32506;DHT22;18955;51.224;8.482;2023-10-13T11:35:45;15.90;91.70
32506;DHT22;18955;51.224;8.482;2023-10-13T11:38:28;15.90;91.70
32506;DHT22;18955;51.224;8.482;2023-10-13T11:41:00;15.90;91.70
32506;DHT22;18955;51.224;8.482;2023-10-13T11:43:39;16.00;91.60
32506;DHT22;18955;51.224;8.482;2023-10-13T11:46:27;16.00;91.60
32506;DHT22;18955;51.224;8.482;2023-10-13T11:49:10;16.00;91.60
32506;DHT22;18955;51.224;8.482;2023-10-13T11:51:40;16.00;91.60
32506;DHT22;18955;51.224;8.482;2023-10-13T11:54:15;16.00;91.60
32506;DHT22;18955;51.224;8.482;2023-10-13T11:56:46;16.00;91.50
32506;DHT22;18955;51.224;8.482;2023-10-13T11:59:12;16.00;91.50
32506;DHT22;18955;51.224;8.482;2023-10-13T12:01:53;16.00;91.50
32506;DHT22;18955;51.224;8.482;2023-10-13T12:04:39;16.00;91.50
32506;DHT22;18955;51.224;8.482;2023-10-13T12:07:18;16.00;91.50
32506;DHT22;18955;51.224;8.482;2023-10-13T12:10:11;16.00;91.50
32506;DHT22;18955;51.224;8.482;2023-10-13T12:13:03;16.00;91.40
32506;DHT22;18955;51.224;8.482;2023-10-13T12:15:33;16.00;91.40
32506;DHT22;18955;51.224;8.482;2023-10-13T12:18:15;16.10;91.40
32506;DHT22;18955;51.224;8.482;2023-10-13T12:20:41;16.00;91.40
32506;DHT22;18955;51.224;8.482;2023-10-13T12:23:12;16.10;91.40
32506;DHT22;18955;51.224;8.482;2023-10-13T12:25:43;16.10;91.40
32506;DHT22;18955;51.224;8.482;2023-10-13T12:28:24;16.10;91.40
32506;DHT22;18955;51.224;8.482;2023-10-13T12:30:56;16.10;91.30
32506;DHT22;18955;51.224;8.482;2023-10-13T12:33:25;16.10;91.30
32506;DHT22;18955;51.224;8.482;2023-10-13T12:35:57;16.10;91.40
32506;DHT22;18955;51.224;8.482;2023-10-13T12:38:36;16.10;91.30
32506;DHT22;18955;51.224;8.482;2023-10-13T12:41:18;16.10;91.30
32506;DHT22;18955;51.224;8.482;2023-10-13T12:44:04;16.10;91.30
32506;DHT22;18955;51.224;8.482;2023-10-13T12:46:50;16.10;91.30
32506;DHT22;18955;51.224;8.482;2023-10-13T12:49:36;16.20;91.30
32506;DHT22;18955;51.224;8.482;2023-10-13T12:52:05;16.20;91.20
32506;DHT22;18955;51.224;8.482;2023-10-13T12:54:48;16.20;91.20
32506;DHT22;18955;51.224;8.482;2023-10-13T12:57:27;16.20;91.20
32506;DHT22;18955;51.224;8.482;2023-10-13T12:59:54;16.20;91.30
32506;DHT22;18955;51.224;8.482;2023-10-13T13:02:25;16.20;91.20
32506;DHT22;18955;51.224;8.482;2023-10-13T13:04:52;16.20;91.20
32506;DHT22;18955;51.224;8.482;2023-10-13T13:07:23;16.30;91.10
32506;DHT22;18955;51.224;8.482;2023-10-13T13:09:55;16.50;90.30
32506;DHT22;18955;51.224;8.482;2023-10-13T13:12:26;16.70;89.20
32506;DHT22;18955;51.224;8.482;2023-10-13T13:14:54;16.80;89.40
32506;DHT22;18955;51.224;8.482;2023-10-13T13:17:23;16.80;88.80
32506;DHT22;18955;51.224;8.482;2023-10-13T13:19:50;16.80;89.10
32506;DHT22;18955;51.224;8.482;2023-10-13T13:22:16;16.80;89.20
32506;DHT22;18955;51.224;8.482;2023-10-13T13:24:44;16.90;88.30
32506;DHT22;18955;51.224;8.482;2023-10-13T13:27:11;16.90;87.50
32506;DHT22;18955;51.224;8.482;2023-10-13T13:29:43;16.90;88.20
32506;DHT22;18955;51.224;8.482;2023-10-13T13:32:10;16.90;88.00
32506;DHT22;18955;51.224;8.482;2023-10-13T13:34:50;16.90;87.60
32506;DHT22;18955;51.224;8.482;2023-10-13T13:37:21;16.90;88.20
32506;DHT22;18955;51.224;8.482;2023-10-13T13:39:48;16.90;88.00
32506;DHT22;18955;51.224;8.482;2023-10-13T13:42:14;16.90;87.50
32506;DHT22;18955;51.224;8.482;2023-10-13T13:44:44;17.00;87.60
32506;DHT22;18955;51.224;8.482;2023-10-13T13:47:15;17.00;86.90
32506;DHT22;18955;51.224;8.482;2023-10-13T13:49:43;17.10;86.00
32506;DHT22;18955;51.224;8.482;2023-10-13T13:52:17;17.10;86.30
32506;DHT22;18955;51.224;8.482;2023-10-13T13:54:48;17.00;87.30
32506;DHT22;18955;51.224;8.482;2023-10-13T13:57:14;17.20;84.40
32506;DHT22;18955;51.224;8.482;2023-10-13T13:59:40;17.20;85.70
32506;DHT22;18955;51.224;8.482;2023-10-13T14:02:11;17.10;85.50
32506;DHT22;18955;51.224;8.482;2023-10-13T14:04:47;17.10;85.20
32506;DHT22;18955;51.224;8.482;2023-10-13T14:07:19;17.20;84.80
32506;DHT22;18955;51.224;8.482;2023-10-13T14:09:46;17.10;85.00
32506;DHT22;18955;51.224;8.482;2023-10-13T14:12:20;17.10;85.60
32506;DHT22;18955;51.224;8.482;2023-10-13T14:15:03;17.00;86.50
32506;DHT22;18955;51.224;8.482;2023-10-13T14:17:29;16.90;87.00
32506;DHT22;18955;51.224;8.482;2023-10-13T14:19:56;16.90;87.40
32506;DHT22;18955;51.224;8.482;2023-10-13T14:22:23;16.90;87.70
32506;DHT22;18955;51.224;8.482;2023-10-13T14:24:51;16.80;88.10
32506;DHT22;18955;51.224;8.482;2023-10-13T14:27:21;16.80;88.20
32506;DHT22;18955;51.224;8.482;2023-10-13T14:29:49;16.80;88.50
32506;DHT22;18955;51.224;8.482;2023-10-13T14:32:23;16.90;88.60
32506;DHT22;18955;51.224;8.482;2023-10-13T14:34:53;16.80;88.60
32506;DHT22;18955;51.224;8.482;2023-10-13T14:37:23;16.80;88.80
32506;DHT22;18955;51.224;8.482;2023-10-13T14:39:56;16.80;88.90
32506;DHT22;18955;51.224;8.482;2023-10-13T14:42:26;16.80;89.10
32506;DHT22;18955;51.224;8.482;2023-10-13T14:44:53;16.80;89.20
32506;DHT22;18955;51.224;8.482;2023-10-13T14:47:25;16.80;89.40
32506;DHT22;18955;51.224;8.482;2023-10-13T14:49:55;16.80;89.50
32506;DHT22;18955;51.224;8.482;2023-10-13T14:52:22;16.80;89.60
32506;DHT22;18955;51.224;8.482;2023-10-13T14:54:48;16.80;89.70
32506;DHT22;18955;51.224;8.482;2023-10-13T14:57:21;16.80;89.70
32506;DHT22;18955;51.224;8.482;2023-10-13T14:59:54;16.70;89.70
32506;DHT22;18955;51.224;8.482;2023-10-13T15:02:21;16.70;89.90
32506;DHT22;18955;51.224;8.482;2023-10-13T15:04:48;16.70;90.00
32506;DHT22;18955;51.224;8.482;2023-10-13T15:07:14;16.70;90.00
32506;DHT22;18955;51.224;8.482;2023-10-13T15:09:43;16.70;90.00
32506;DHT22;18955;51.224;8.482;2023-10-13T15:12:09;16.70;90.00
32506;DHT22;18955;51.224;8.482;2023-10-13T15:14:40;16.70;90.00
32506;DHT22;18955;51.224;8.482;2023-10-13T15:17:09;16.70;90.10
32506;DHT22;18955;51.224;8.482;2023-10-13T15:19:36;16.70;90.10
32506;DHT22;18955;51.224;8.482;2023-10-13T15:22:05;16.70;90.10
32506;DHT22;18955;51.224;8.482;2023-10-13T15:24:38;16.70;90.10
32506;DHT22;18955;51.224;8.482;2023-10-13T15:27:11;16.70;90.10
32506;DHT22;18955;51.224;8.482;2023-10-13T15:29:37;16.70;90.10
32506;DHT22;18955;51.224;8.482;2023-10-13T15:32:04;16.70;90.10
32506;DHT22;18955;51.224;8.482;2023-10-13T15:34:51;16.70;90.10
32506;DHT22;18955;51.224;8.482;2023-10-13T15:37:17;16.70;90.00
32506;DHT22;18955;51.224;8.482;2023-10-13T15:39:45;16.70;90.10
32506;DHT22;18955;51.224;8.482;2023-10-13T15:42:11;16.70;90.10
32506;DHT22;18955;51.224;8.482;2023-10-13T15:44:40;16.70;90.00
32506;DHT22;18955;51.224;8.482;2023-10-13T15:47:09;16.70;90.10
32506;DHT22;18955;51.224;8.482;2023-10-13T15:49:38;16.70;90.10
32506;DHT22;18955;51.224;8.482;2023-10-13T15:52:08;16.70;90.10
32506;DHT22;18955;51.224;8.482;2023-10-13T15:54:36;16.70;90.20
32506;DHT22;18955;51.224;8.482;2023-10-13T15:57:02;16.70;90.20
32506;DHT22;18955;51.224;8.482;2023-10-13T15:59:33;16.70;90.10
32506;DHT22;18955;51.224;8.482;2023-10-13T16:02:01;16.70;90.10
32506;DHT22;18955;51.224;8.482;2023-10-13T16:04:27;16.70;90.10
32506;DHT22;18955;51.224;8.482;2023-10-13T16:06:53;16.70;90.20
32506;DHT22;18955;51.224;8.482;2023-10-13T16:09:19;16.70;90.20
32506;DHT22;18955;51.224;8.482;2023-10-13T16:11:49;16.70;90.20
32506;DHT22;18955;51.224;8.482;2023-10-13T16:14:16;16.60;90.20
32506;DHT22;18955;51.224;8.482;2023-10-13T16:16:48;16.60;90.20
32506;DHT22;18955;51.224;8.482;2023-10-13T16:19:17;16.60;90.20
32506;DHT22;18955;51.224;8.482;2023-10-13T16:21:44;16.60;90.20
32506;DHT22;18955;51.224;8.482;2023-10-13T16:24:11;16.60;90.00